createdAt,value
2023-04-10T00:00:09.588Z,40.00
2023-04-10T00:00:42.126Z,39.40
2023-04-10T00:01:14.619Z,38.30
2023-04-10T00:01:47.193Z,37.40
2023-04-10T00:02:19.701Z,37.50
2023-04-10T00:02:52.270Z,40.30
2023-04-10T00:03:24.769Z,43.20
2023-04-10T00:03:57.384Z,40.20
2023-04-10T00:04:29.672Z,37.70
2023-04-10T00:05:02.152Z,39.60
2023-04-10T00:05:34.576Z,39.40
2023-04-10T00:06:07.063Z,38.30
2023-04-10T00:06:39.587Z,38.90
2023-04-10T00:07:12.054Z,35.20
2023-04-10T00:07:44.512Z,36.10
2023-04-10T00:08:17.045Z,40.00
2023-04-10T00:08:49.601Z,40.80
2023-04-10T00:09:22.177Z,39.50
2023-04-10T00:09:54.637Z,40.90
2023-04-10T00:10:27.122Z,40.00
2023-04-10T00:10:59.573Z,39.10
2023-04-10T00:11:32.166Z,39.60
2023-04-10T00:12:04.634Z,40.40
2023-04-10T00:12:37.136Z,40.80
2023-04-10T00:13:09.600Z,40.40
2023-04-10T00:13:42.040Z,39.10
2023-04-10T00:14:14.523Z,39.30
2023-04-10T00:14:47.027Z,40.50
2023-04-10T00:15:19.471Z,39.40
2023-04-10T00:15:51.968Z,40.40
2023-04-10T00:16:24.481Z,40.80
2023-04-10T00:16:56.929Z,40.30
2023-04-10T00:17:29.424Z,37.80
2023-04-10T00:18:02.015Z,40.00
2023-04-10T00:18:34.435Z,41.70
2023-04-10T00:19:06.940Z,39.90
2023-04-10T00:19:39.423Z,40.50
2023-04-10T00:20:11.914Z,41.10
2023-04-10T00:20:44.413Z,41.70
2023-04-10T00:21:16.893Z,40.90
2023-04-10T00:21:49.358Z,41.20
2023-04-10T00:22:21.847Z,40.10
2023-04-10T00:22:54.344Z,38.60
2023-04-10T00:23:26.858Z,39.50
2023-04-10T00:23:59.309Z,39.20
2023-04-10T00:24:31.829Z,40.00
2023-04-10T00:25:04.287Z,38.40
2023-04-10T00:25:36.766Z,37.00
2023-04-10T00:26:09.253Z,37.30
2023-04-10T00:26:41.734Z,38.70
2023-04-10T00:27:14.194Z,40.00
2023-04-10T00:27:46.688Z,41.10
2023-04-10T00:28:19.155Z,42.50
2023-04-10T00:28:51.730Z,40.20
2023-04-10T00:29:24.165Z,39.30
2023-04-10T00:29:56.654Z,40.70
2023-04-10T00:30:29.149Z,41.10
2023-04-10T00:31:01.673Z,40.40
2023-04-10T00:31:34.190Z,40.20
2023-04-10T00:32:06.631Z,40.00
2023-04-10T00:32:39.097Z,37.70
2023-04-10T00:33:11.521Z,38.90
2023-04-10T00:33:43.974Z,41.60
2023-04-10T00:34:16.457Z,41.00
2023-04-10T00:34:48.987Z,39.20
2023-04-10T00:35:21.451Z,38.90
2023-04-10T00:35:53.967Z,39.70
2023-04-10T00:36:26.406Z,41.00
2023-04-10T00:36:58.879Z,40.90
2023-04-10T00:37:31.361Z,40.00
2023-04-10T00:38:03.843Z,41.20
2023-04-10T00:38:36.305Z,42.80
2023-04-10T00:39:08.848Z,41.30
2023-04-10T00:39:41.297Z,39.40
2023-04-10T00:40:13.780Z,41.20
2023-04-10T00:40:46.205Z,42.80
2023-04-10T00:41:18.675Z,42.30
2023-04-10T00:41:51.301Z,41.70
2023-04-10T00:42:23.808Z,43.20
2023-04-10T00:42:56.280Z,42.30
2023-04-10T00:43:28.776Z,42.10
2023-04-10T00:44:01.271Z,42.00
2023-04-10T00:44:33.740Z,41.80
2023-04-10T00:45:06.213Z,43.00
2023-04-10T00:45:38.708Z,42.20
2023-04-10T00:46:11.193Z,43.50
2023-04-10T00:46:43.666Z,42.50
2023-04-10T00:47:16.134Z,41.60
2023-04-10T00:47:48.713Z,42.70
2023-04-10T00:48:21.082Z,42.50
2023-04-10T00:48:53.562Z,44.00
2023-04-10T00:49:26.031Z,43.50
2023-04-10T00:49:58.547Z,44.80
2023-04-10T00:50:31.045Z,42.80
2023-04-10T00:51:03.510Z,41.40
2023-04-10T00:51:35.981Z,41.10
2023-04-10T00:52:08.499Z,40.60
2023-04-10T00:52:40.973Z,41.40
2023-04-10T00:53:13.449Z,42.00
2023-04-10T00:53:45.931Z,43.00
2023-04-10T00:54:18.408Z,44.80
2023-04-10T00:54:50.868Z,45.30
2023-04-10T00:55:23.365Z,43.40
2023-04-10T00:55:55.881Z,42.50
2023-04-10T00:56:28.353Z,40.70
2023-04-10T00:57:00.897Z,40.40
2023-04-10T00:57:33.355Z,42.40
2023-04-10T00:58:05.818Z,43.00
2023-04-10T00:58:38.381Z,41.30
2023-04-10T00:59:10.870Z,41.50
2023-04-10T00:59:43.382Z,43.30
2023-04-10T01:00:15.903Z,45.70
2023-04-10T01:00:48.378Z,45.70
2023-04-10T01:01:20.923Z,45.10
2023-04-10T01:01:53.472Z,44.80
2023-04-10T01:02:25.997Z,42.50
2023-04-10T01:02:58.419Z,43.70
2023-04-10T01:03:30.862Z,44.20
2023-04-10T01:04:03.402Z,44.40
2023-04-10T01:04:35.873Z,44.30
2023-04-10T01:05:08.198Z,44.40
2023-04-10T01:05:40.697Z,44.20
2023-04-10T01:06:13.146Z,45.20
2023-04-10T01:06:45.656Z,45.90
2023-04-10T01:07:18.105Z,44.00
2023-04-10T01:07:50.584Z,42.40
2023-04-10T01:08:23.048Z,44.50
2023-04-10T01:08:55.535Z,45.50
2023-04-10T01:09:28.026Z,46.60
2023-04-10T01:10:00.494Z,45.90
2023-04-10T01:10:32.971Z,44.90
2023-04-10T01:11:05.444Z,45.20
2023-04-10T01:11:37.891Z,46.10
2023-04-10T01:12:10.399Z,48.00
2023-04-10T01:12:42.909Z,46.80
2023-04-10T01:13:15.416Z,47.20
2023-04-10T01:13:47.895Z,45.00
2023-04-10T01:14:20.368Z,44.20
2023-04-10T01:14:53.384Z,43.40
2023-04-10T01:15:25.886Z,44.50
2023-04-10T01:15:58.393Z,46.30
2023-04-10T01:16:30.905Z,46.00
2023-04-10T01:17:03.508Z,47.60
2023-04-10T01:17:35.858Z,50.00
2023-04-10T01:18:08.373Z,46.70
2023-04-10T01:18:40.818Z,45.80
2023-04-10T01:19:13.342Z,48.50
2023-04-10T01:19:45.880Z,49.50
2023-04-10T01:20:18.382Z,49.70
2023-04-10T01:20:50.881Z,49.20
2023-04-10T01:21:23.368Z,47.90
2023-04-10T01:21:55.896Z,47.60
2023-04-10T01:22:28.369Z,47.90
2023-04-10T01:23:00.839Z,46.10
2023-04-10T01:23:33.301Z,47.40
2023-04-10T01:24:05.797Z,47.70
2023-04-10T01:24:38.286Z,46.90
2023-04-10T01:25:10.759Z,47.40
2023-04-10T01:25:43.237Z,45.70
2023-04-10T01:26:15.805Z,47.40
2023-04-10T01:26:48.275Z,48.00
2023-04-10T01:27:20.756Z,46.40
2023-04-10T01:27:53.220Z,45.00
2023-04-10T01:28:25.746Z,47.70
2023-04-10T01:28:58.220Z,48.20
2023-04-10T01:29:30.695Z,47.40
2023-04-10T01:30:03.195Z,49.00
2023-04-10T01:30:35.733Z,46.90
2023-04-10T01:31:08.238Z,45.60
2023-04-10T01:31:40.687Z,51.20
2023-04-10T01:32:13.133Z,51.50
2023-04-10T01:32:45.632Z,44.80
2023-04-10T01:33:18.099Z,44.40
2023-04-10T01:33:50.581Z,46.00
2023-04-10T01:34:23.058Z,47.70
2023-04-10T01:34:55.556Z,46.10
2023-04-10T01:35:28.043Z,44.40
2023-04-10T01:36:00.511Z,47.80
2023-04-10T01:36:32.983Z,50.70
2023-04-10T01:37:05.483Z,48.10
2023-04-10T01:37:37.929Z,51.30
2023-04-10T01:38:10.430Z,48.20
2023-04-10T01:38:42.906Z,47.00
2023-04-10T01:39:15.463Z,48.60
2023-04-10T01:39:47.962Z,45.40
2023-04-10T01:40:20.401Z,42.40
2023-04-10T01:40:52.869Z,43.60
2023-04-10T01:41:25.406Z,46.50
2023-04-10T01:41:57.924Z,46.40
2023-04-10T01:42:30.352Z,43.70
2023-04-10T01:43:02.834Z,43.20
2023-04-10T01:43:35.301Z,45.60
2023-04-10T01:44:07.815Z,45.80
2023-04-10T01:44:40.300Z,44.80
2023-04-10T01:45:12.781Z,44.50
2023-04-10T01:45:45.261Z,44.60
2023-04-10T01:46:17.803Z,45.20
2023-04-10T01:46:50.218Z,46.90
2023-04-10T01:47:22.744Z,46.70
2023-04-10T01:47:55.206Z,47.60
2023-04-10T01:48:27.660Z,47.40
2023-04-10T01:49:00.201Z,45.30
2023-04-10T01:49:32.690Z,46.00
2023-04-10T01:50:05.140Z,46.20
2023-04-10T01:50:37.628Z,46.90
2023-04-10T01:51:10.132Z,46.60
2023-04-10T01:51:42.619Z,46.80
2023-04-10T01:52:15.091Z,46.90
2023-04-10T01:52:47.554Z,47.20
2023-04-10T01:53:20.050Z,47.60
2023-04-10T01:53:52.862Z,47.30
2023-04-10T01:54:25.021Z,46.00
2023-04-10T01:54:57.503Z,46.10
2023-04-10T01:55:29.982Z,46.50
2023-04-10T01:56:02.445Z,47.50
2023-04-10T01:56:34.942Z,46.90
2023-04-10T01:57:07.414Z,45.30
2023-04-10T01:57:39.868Z,44.90
2023-04-10T01:58:12.330Z,47.80
2023-04-10T01:58:44.817Z,45.20
2023-04-10T01:59:17.258Z,45.30
2023-04-10T01:59:49.766Z,46.10
2023-04-10T02:00:22.262Z,44.20
2023-04-10T02:00:54.730Z,47.60
2023-04-10T02:01:30.097Z,48.70
2023-04-10T02:01:59.763Z,47.80
2023-04-10T02:02:32.314Z,48.00
2023-04-10T02:03:04.823Z,46.60
2023-04-10T02:03:37.433Z,45.70
2023-04-10T02:04:09.709Z,46.70
2023-04-10T02:04:42.183Z,46.10
2023-04-10T02:05:14.676Z,44.40
2023-04-10T02:05:47.142Z,47.10
2023-04-10T02:06:19.611Z,48.00
2023-04-10T02:06:52.110Z,47.30
2023-04-10T02:07:24.576Z,42.70
2023-04-10T02:07:57.048Z,43.90
2023-04-10T02:08:29.501Z,47.40
2023-04-10T02:09:01.956Z,46.00
2023-04-10T02:09:34.449Z,45.40
2023-04-10T02:10:06.921Z,46.40
2023-04-10T02:10:39.410Z,44.70
2023-04-10T02:11:11.888Z,44.70
2023-04-10T02:11:44.351Z,43.80
2023-04-10T02:12:16.837Z,44.20
2023-04-10T02:12:49.317Z,45.50
2023-04-10T02:13:21.824Z,46.30
2023-04-10T02:13:54.542Z,44.80
2023-04-10T02:14:26.766Z,45.20
2023-04-10T02:14:59.395Z,45.00
2023-04-10T02:15:31.788Z,46.90
2023-04-10T02:16:04.448Z,48.80
2023-04-10T02:16:36.723Z,47.60
2023-04-10T02:17:09.241Z,45.70
2023-04-10T02:17:41.762Z,45.60
2023-04-10T02:18:14.215Z,45.00
2023-04-10T02:18:46.673Z,45.40
2023-04-10T02:19:19.147Z,45.20
2023-04-10T02:19:51.612Z,45.40
2023-04-10T02:20:24.159Z,46.10
2023-04-10T02:20:56.648Z,45.00
2023-04-10T02:21:29.134Z,45.90
2023-04-10T02:22:01.639Z,47.00
2023-04-10T02:22:34.105Z,46.30
2023-04-10T02:23:06.564Z,45.80
2023-04-10T02:23:39.046Z,42.90
2023-04-10T02:24:11.521Z,41.20
2023-04-10T02:24:43.966Z,44.70
2023-04-10T02:25:16.469Z,44.50
2023-04-10T02:25:48.943Z,43.60
2023-04-10T02:26:21.419Z,44.80
2023-04-10T02:26:53.928Z,44.30
2023-04-10T02:27:26.357Z,43.90
2023-04-10T02:27:58.819Z,44.30
2023-04-10T02:28:31.271Z,45.00
2023-04-10T02:29:03.740Z,46.10
2023-04-10T02:29:36.222Z,44.10
2023-04-10T02:30:08.669Z,44.40
2023-04-10T02:30:41.360Z,46.30
2023-04-10T02:31:13.874Z,44.50
2023-04-10T02:31:46.337Z,42.80
2023-04-10T02:32:18.778Z,45.50
2023-04-10T02:32:51.334Z,44.60
2023-04-10T02:33:23.747Z,41.50
2023-04-10T02:33:56.350Z,44.50
2023-04-10T02:34:28.716Z,46.30
2023-04-10T02:35:01.187Z,46.20
2023-04-10T02:35:33.678Z,43.80
2023-04-10T02:36:06.230Z,42.70
2023-04-10T02:36:38.624Z,43.10
2023-04-10T02:37:11.097Z,43.10
2023-04-10T02:37:43.554Z,44.00
2023-04-10T02:38:17.302Z,44.50
2023-04-10T02:38:48.517Z,44.00
2023-04-10T02:39:21.001Z,43.60
2023-04-10T02:39:53.492Z,43.00
2023-04-10T02:40:26.000Z,43.50
2023-04-10T02:40:58.477Z,44.20
2023-04-10T02:41:30.970Z,42.00
2023-04-10T02:42:03.437Z,43.30
2023-04-10T02:42:35.935Z,43.20
2023-04-10T02:43:08.411Z,43.20
2023-04-10T02:43:40.907Z,43.50
2023-04-10T02:44:13.385Z,43.80
2023-04-10T02:44:45.893Z,43.40
2023-04-10T02:45:18.393Z,42.00
2023-04-10T02:45:50.855Z,41.90
2023-04-10T02:46:23.440Z,45.30
2023-04-10T02:46:55.893Z,44.90
2023-04-10T02:47:28.387Z,42.80
2023-04-10T02:48:00.916Z,41.20
2023-04-10T02:48:33.315Z,40.60
2023-04-10T02:49:05.786Z,43.60
2023-04-10T02:49:38.260Z,43.80
2023-04-10T02:50:10.723Z,43.50
2023-04-10T02:50:43.170Z,44.90
2023-04-10T02:51:15.648Z,45.20
2023-04-10T02:51:48.152Z,45.60
2023-04-10T02:52:20.615Z,44.00
2023-04-10T02:52:53.103Z,41.60
2023-04-10T02:53:25.614Z,40.80
2023-04-10T02:53:58.067Z,41.50
2023-04-10T02:54:30.569Z,43.80
2023-04-10T02:55:03.047Z,43.60
2023-04-10T02:55:35.520Z,44.40
2023-04-10T02:56:07.978Z,42.10
2023-04-10T02:56:40.463Z,41.40
2023-04-10T02:57:12.983Z,41.80
2023-04-10T02:57:45.451Z,42.50
2023-04-10T02:58:17.942Z,43.60
2023-04-10T02:58:50.430Z,43.00
2023-04-10T02:59:22.965Z,41.30
2023-04-10T02:59:55.421Z,40.00
2023-04-10T03:00:27.891Z,40.10
2023-04-10T03:01:00.380Z,42.30
2023-04-10T03:01:32.894Z,42.80
2023-04-10T03:02:05.424Z,42.80
2023-04-10T03:02:37.989Z,44.30
2023-04-10T03:03:10.418Z,44.30
2023-04-10T03:03:42.851Z,43.30
2023-04-10T03:04:15.295Z,41.80
2023-04-10T03:04:47.767Z,40.90
2023-04-10T03:05:20.179Z,40.30
2023-04-10T03:05:52.661Z,41.30
2023-04-10T03:06:25.158Z,40.80
2023-04-10T03:06:57.653Z,40.50
2023-04-10T03:07:30.110Z,41.30
2023-04-10T03:08:02.594Z,39.00
2023-04-10T03:08:35.064Z,40.20
2023-04-10T03:09:07.531Z,41.40
2023-04-10T03:09:40.043Z,37.90
2023-04-10T03:10:12.505Z,40.30
2023-04-10T03:10:44.996Z,40.80
2023-04-10T03:11:17.448Z,41.00
2023-04-10T03:11:49.928Z,45.80
2023-04-10T03:12:22.444Z,44.40
2023-04-10T03:12:54.914Z,43.00
2023-04-10T03:13:27.428Z,42.70
2023-04-10T03:13:59.892Z,40.20
2023-04-10T03:14:32.360Z,42.00
2023-04-10T03:15:04.839Z,42.60
2023-04-10T03:15:37.316Z,42.80
2023-04-10T03:16:09.842Z,41.20
2023-04-10T03:16:42.332Z,41.50
2023-04-10T03:17:14.776Z,42.20
2023-04-10T03:17:47.287Z,42.60
2023-04-10T03:18:19.748Z,40.80
2023-04-10T03:18:52.272Z,39.40
2023-04-10T03:19:24.722Z,39.20
2023-04-10T03:19:57.194Z,42.00
2023-04-10T03:20:29.678Z,42.00
2023-04-10T03:21:02.209Z,38.70
2023-04-10T03:21:34.707Z,41.00
2023-04-10T03:22:07.201Z,43.20
2023-04-10T03:22:39.750Z,41.20
2023-04-10T03:23:12.165Z,39.60
2023-04-10T03:23:44.641Z,40.10
2023-04-10T03:24:17.137Z,39.80
2023-04-10T03:24:49.605Z,40.20
2023-04-10T03:25:22.096Z,38.90
2023-04-10T03:25:54.604Z,37.80
2023-04-10T03:26:27.096Z,39.70
2023-04-10T03:26:59.562Z,40.80
2023-04-10T03:27:32.052Z,41.90
2023-04-10T03:28:04.506Z,41.10
2023-04-10T03:28:36.977Z,40.30
2023-04-10T03:29:09.473Z,38.20
2023-04-10T03:29:41.971Z,38.60
2023-04-10T03:30:14.431Z,40.70
2023-04-10T03:30:46.909Z,38.90
2023-04-10T03:31:19.426Z,39.30
2023-04-10T03:31:51.907Z,38.80
2023-04-10T03:32:24.334Z,38.00
2023-04-10T03:32:56.874Z,39.40
2023-04-10T03:33:29.393Z,39.10
2023-04-10T03:34:01.949Z,38.40
2023-04-10T03:34:34.402Z,40.80
2023-04-10T03:35:06.870Z,39.40
2023-04-10T03:35:39.432Z,38.70
2023-04-10T03:36:11.897Z,38.40
2023-04-10T03:36:44.340Z,36.90
2023-04-10T03:37:16.835Z,40.00
2023-04-10T03:37:49.391Z,39.10
2023-04-10T03:38:21.856Z,37.40
2023-04-10T03:38:54.358Z,36.00
2023-04-10T03:39:26.847Z,37.80
2023-04-10T03:39:59.305Z,38.60
2023-04-10T03:40:31.829Z,36.30
2023-04-10T03:41:04.311Z,35.40
2023-04-10T03:41:36.807Z,37.90
2023-04-10T03:42:09.330Z,40.40
2023-04-10T03:42:41.809Z,37.90
2023-04-10T03:43:14.306Z,36.30
2023-04-10T03:43:46.815Z,36.60
2023-04-10T03:44:19.313Z,37.40
2023-04-10T03:44:51.791Z,38.00
2023-04-10T03:45:24.305Z,36.90
2023-04-10T03:45:56.770Z,35.80
2023-04-10T03:46:29.296Z,37.70
2023-04-10T03:47:01.774Z,37.90
2023-04-10T03:47:34.298Z,36.80
2023-04-10T03:48:06.769Z,37.30
2023-04-10T03:48:39.235Z,36.90
2023-04-10T03:49:11.700Z,36.50
2023-04-10T03:49:44.206Z,35.80
2023-04-10T03:50:16.721Z,36.30
2023-04-10T03:50:49.181Z,36.90
2023-04-10T03:51:21.680Z,36.70
2023-04-10T03:51:54.140Z,35.60
2023-04-10T03:52:26.639Z,35.60
2023-04-10T03:52:59.134Z,35.80
2023-04-10T03:53:32.919Z,37.10
2023-04-10T03:54:04.094Z,35.50
2023-04-10T03:54:36.562Z,34.00
2023-04-10T03:55:09.061Z,35.80
2023-04-10T03:55:41.526Z,38.10
2023-04-10T03:56:13.998Z,39.50
2023-04-10T03:56:46.529Z,37.60
2023-04-10T03:57:19.007Z,37.40
2023-04-10T03:57:51.469Z,38.80
2023-04-10T03:58:23.966Z,37.60
2023-04-10T03:58:56.444Z,38.40
2023-04-10T03:59:38.208Z,36.70
2023-04-10T04:00:01.472Z,35.80
2023-04-10T04:00:33.960Z,35.20
2023-04-10T04:01:06.422Z,35.40
2023-04-10T04:01:39.044Z,35.20
2023-04-10T04:02:11.544Z,36.50
2023-04-10T04:02:44.047Z,37.90
2023-04-10T04:03:16.590Z,36.70
2023-04-10T04:03:49.053Z,34.50
2023-04-10T04:04:21.431Z,32.90
2023-04-10T04:04:53.909Z,35.00
2023-04-10T04:05:26.372Z,35.30
2023-04-10T04:05:58.863Z,35.00
2023-04-10T04:06:31.349Z,36.20
2023-04-10T04:07:03.854Z,34.20
2023-04-10T04:07:36.306Z,34.30
2023-04-10T04:08:08.810Z,34.10
2023-04-10T04:08:41.306Z,34.70
2023-04-10T04:09:13.878Z,35.00
2023-04-10T04:09:46.384Z,36.40
2023-04-10T04:10:18.855Z,35.10
2023-04-10T04:10:51.341Z,33.10
2023-04-10T04:11:23.851Z,35.00
2023-04-10T04:11:56.313Z,36.80
2023-04-10T04:12:28.812Z,35.70
2023-04-10T04:13:01.278Z,35.00
2023-04-10T04:13:33.754Z,35.40
2023-04-10T04:15:51.287Z,35.90
2023-04-10T04:16:23.757Z,34.20
2023-04-10T04:16:56.247Z,34.90
2023-04-10T04:17:28.685Z,36.60
2023-04-10T04:18:01.115Z,34.80
2023-04-10T04:18:33.546Z,35.50
2023-04-10T04:19:05.992Z,34.70
2023-04-10T04:19:38.451Z,33.40
2023-04-10T04:20:10.894Z,35.00
2023-04-10T04:20:43.385Z,34.70
2023-04-10T04:21:15.832Z,34.60
2023-04-10T04:21:48.290Z,34.90
2023-04-10T04:22:20.746Z,35.10
2023-04-10T04:22:53.182Z,34.90
2023-04-10T04:23:25.662Z,34.80
2023-04-10T04:23:58.143Z,35.10
2023-04-10T04:24:30.606Z,34.40
2023-04-10T04:25:03.161Z,33.40
2023-04-10T04:25:35.618Z,34.00
2023-04-10T04:26:08.111Z,32.20
2023-04-10T04:26:40.605Z,34.60
2023-04-10T04:27:13.066Z,33.10
2023-04-10T04:27:45.523Z,32.60
2023-04-10T04:28:17.995Z,32.90
2023-04-10T04:28:50.468Z,32.60
2023-04-10T04:29:22.938Z,33.30
2023-04-10T04:29:55.392Z,34.30
2023-04-10T04:30:27.882Z,34.00
2023-04-10T04:31:00.374Z,32.30
2023-04-10T04:31:32.977Z,30.30
2023-04-10T04:32:05.348Z,31.90
2023-04-10T04:32:37.876Z,34.40
2023-04-10T04:33:10.289Z,33.30
2023-04-10T04:33:42.750Z,33.20
2023-04-10T04:34:15.219Z,31.80
2023-04-10T04:34:47.663Z,32.60
2023-04-10T04:35:20.144Z,34.00
2023-04-10T04:35:52.614Z,32.80
2023-04-10T04:36:25.031Z,32.70
2023-04-10T04:36:57.523Z,33.20
2023-04-10T04:37:29.964Z,33.60
2023-04-10T04:38:02.456Z,31.70
2023-04-10T04:38:34.909Z,30.90
2023-04-10T04:39:07.357Z,32.30
2023-04-10T04:39:39.825Z,32.20
2023-04-10T04:40:12.295Z,31.40
2023-04-10T04:40:44.722Z,32.20
2023-04-10T04:41:18.765Z,33.60
2023-04-10T04:41:49.708Z,31.10
2023-04-10T04:42:22.133Z,30.60
2023-04-10T04:42:54.618Z,31.20
2023-04-10T04:43:27.093Z,31.60
2023-04-10T04:43:59.560Z,30.10
2023-04-10T04:44:32.066Z,29.20
2023-04-10T04:45:04.522Z,29.90
2023-04-10T04:45:37.018Z,30.80
2023-04-10T04:46:09.501Z,31.00
2023-04-10T04:46:44.404Z,31.00
2023-04-10T04:47:14.386Z,32.30
2023-04-10T04:47:46.899Z,31.10
2023-04-10T04:48:19.303Z,30.10
2023-04-10T04:48:51.753Z,29.50
2023-04-10T04:49:24.231Z,29.70
2023-04-10T04:49:56.674Z,30.70
2023-04-10T04:50:29.133Z,29.10
2023-04-10T04:51:01.592Z,29.50
2023-04-10T04:51:34.064Z,28.90
2023-04-10T04:52:06.526Z,27.80
2023-04-10T04:52:38.993Z,29.80
2023-04-10T04:53:11.473Z,31.10
2023-04-10T04:53:43.907Z,31.10
2023-04-10T04:54:16.390Z,29.50
2023-04-10T04:54:48.831Z,29.10
2023-04-10T04:55:21.296Z,29.80
2023-04-10T04:55:53.713Z,32.30
2023-04-10T04:56:26.153Z,29.20
2023-04-10T04:56:58.616Z,26.50
2023-04-10T04:57:31.062Z,28.80
2023-04-10T04:58:03.525Z,30.40
2023-04-10T04:58:35.991Z,28.10
2023-04-10T04:59:08.508Z,26.40
2023-04-10T04:59:40.987Z,28.10
2023-04-10T05:00:13.444Z,27.80
2023-04-10T05:00:45.923Z,28.60
2023-04-10T05:01:18.468Z,29.60
2023-04-10T05:01:51.054Z,27.80
2023-04-10T05:02:23.478Z,28.70
2023-04-10T05:02:56.055Z,29.40
2023-04-10T05:03:28.596Z,30.10
2023-04-10T05:04:00.935Z,29.50
2023-04-10T05:04:33.337Z,29.80
2023-04-10T05:05:05.845Z,29.30
2023-04-10T05:05:38.301Z,27.90
2023-04-10T05:06:10.789Z,29.40
2023-04-10T05:06:43.263Z,27.60
2023-04-10T05:07:15.734Z,27.50
2023-04-10T05:07:48.203Z,29.10
2023-04-10T05:08:20.689Z,28.30
2023-04-10T05:08:53.621Z,27.30
2023-04-10T05:09:25.667Z,27.50
2023-04-10T05:09:58.134Z,27.40
2023-04-10T05:10:30.656Z,27.00
2023-04-10T05:11:03.112Z,29.20
2023-04-10T05:11:35.631Z,29.80
2023-04-10T05:12:08.070Z,28.50
2023-04-10T05:12:40.546Z,27.80
2023-04-10T05:13:13.068Z,27.20
2023-04-10T05:13:45.531Z,27.90
2023-04-10T05:14:17.997Z,28.80
2023-04-10T05:14:50.485Z,28.80
2023-04-10T05:15:22.937Z,28.20
2023-04-10T05:15:55.447Z,27.90
2023-04-10T05:16:27.930Z,26.50
2023-04-10T05:17:02.158Z,25.50
2023-04-10T05:17:32.848Z,25.30
2023-04-10T05:18:05.339Z,26.80
2023-04-10T05:18:37.817Z,27.60
2023-04-10T05:19:10.175Z,28.00
2023-04-10T05:19:42.637Z,28.20
2023-04-10T05:20:15.094Z,26.00
2023-04-10T05:20:47.538Z,24.90
2023-04-10T05:21:20.021Z,27.90
2023-04-10T05:21:52.464Z,27.40
2023-04-10T05:22:25.001Z,26.40
2023-04-10T05:22:57.560Z,25.60
2023-04-10T05:23:30.030Z,23.90
2023-04-10T05:24:02.555Z,25.40
2023-04-10T05:24:34.986Z,25.10
2023-04-10T05:25:07.501Z,23.90
2023-04-10T05:25:40.010Z,23.00
2023-04-10T05:26:12.406Z,23.10
2023-04-10T05:26:44.885Z,23.90
2023-04-10T05:27:17.385Z,24.60
2023-04-10T05:27:49.855Z,25.20
2023-04-10T05:28:22.337Z,23.70
2023-04-10T05:28:55.054Z,22.40
2023-04-10T05:29:27.269Z,22.20
2023-04-10T05:29:59.733Z,23.10
2023-04-10T05:30:32.197Z,22.60
2023-04-10T05:31:04.695Z,23.60
2023-04-10T05:31:37.184Z,25.60
2023-04-10T05:32:09.596Z,25.50
2023-04-10T05:32:42.072Z,24.50
2023-04-10T05:33:14.514Z,23.30
2023-04-10T05:33:47.025Z,23.30
2023-04-10T05:34:19.492Z,24.60
2023-04-10T05:34:51.971Z,24.50
2023-04-10T05:35:24.446Z,23.30
2023-04-10T05:35:56.928Z,24.10
2023-04-10T05:36:29.366Z,22.90
2023-04-10T05:37:01.846Z,22.50
2023-04-10T05:37:34.334Z,23.50
2023-04-10T05:38:06.823Z,23.50
2023-04-10T05:38:39.279Z,22.70
2023-04-10T05:39:11.738Z,22.60
2023-04-10T05:39:44.226Z,22.80
2023-04-10T05:40:16.685Z,22.20
2023-04-10T05:40:49.181Z,22.60
2023-04-10T05:41:21.619Z,22.20
2023-04-10T05:41:54.114Z,20.10
2023-04-10T05:42:26.568Z,19.50
2023-04-10T05:42:59.036Z,20.00
2023-04-10T05:43:31.500Z,19.90
2023-04-10T05:44:03.987Z,19.70
2023-04-10T05:44:36.463Z,20.30
2023-04-10T05:45:08.941Z,20.90
2023-04-10T05:45:41.395Z,21.50
2023-04-10T05:46:13.928Z,20.80
2023-04-10T05:46:46.455Z,21.40
2023-04-10T05:47:18.838Z,21.00
2023-04-10T05:47:51.333Z,20.60
2023-04-10T05:48:23.769Z,20.90
2023-04-10T05:48:56.545Z,18.10
2023-04-10T05:49:28.715Z,18.20
2023-04-10T05:50:01.191Z,19.50
2023-04-10T05:50:33.688Z,19.20
2023-04-10T05:51:06.188Z,18.70
2023-04-10T05:51:38.629Z,18.70
2023-04-10T05:52:11.094Z,18.70
2023-04-10T05:52:43.568Z,18.80
2023-04-10T05:53:16.027Z,19.40
2023-04-10T05:53:48.610Z,18.80
2023-04-10T05:54:21.147Z,18.70
2023-04-10T05:54:53.631Z,19.10
2023-04-10T05:55:26.096Z,20.00
2023-04-10T05:55:58.588Z,19.80
2023-04-10T05:56:31.054Z,19.60
2023-04-10T05:57:03.524Z,18.50
2023-04-10T05:57:36.029Z,17.40
2023-04-10T05:58:08.511Z,17.20
2023-04-10T05:58:40.998Z,18.10
2023-04-10T05:59:13.482Z,18.70
2023-04-10T05:59:45.942Z,18.40
2023-04-10T06:00:18.404Z,18.80
2023-04-10T06:00:50.883Z,18.80
2023-04-10T06:01:23.359Z,17.80
2023-04-10T06:01:55.854Z,16.20
2023-04-10T06:02:28.511Z,17.60
2023-04-10T06:03:00.894Z,17.70
2023-04-10T06:03:33.302Z,17.20
2023-04-10T06:04:05.802Z,17.80
2023-04-10T06:04:38.417Z,19.20
2023-04-10T06:05:10.723Z,19.20
2023-04-10T06:05:43.126Z,18.50
2023-04-10T06:06:15.622Z,19.00
2023-04-10T06:06:48.052Z,19.60
2023-04-10T06:07:20.550Z,19.20
2023-04-10T06:07:53.019Z,18.90
2023-04-10T06:08:25.510Z,17.60
2023-04-10T06:08:57.999Z,17.60
2023-04-10T06:09:30.479Z,16.60
2023-04-10T06:10:02.951Z,17.60
2023-04-10T06:10:35.415Z,18.00
2023-04-10T06:11:07.921Z,17.50
2023-04-10T06:11:40.372Z,18.20
2023-04-10T06:12:12.847Z,17.90
2023-04-10T06:12:45.326Z,17.90
2023-04-10T06:13:17.787Z,17.00
2023-04-10T06:13:50.263Z,17.10
2023-04-10T06:14:22.724Z,16.70
2023-04-10T06:14:55.204Z,15.70
2023-04-10T06:15:27.666Z,16.30
2023-04-10T06:16:00.244Z,16.80
2023-04-10T06:16:32.646Z,17.70
2023-04-10T06:17:05.070Z,16.50
2023-04-10T06:17:37.565Z,15.60
2023-04-10T06:18:10.049Z,16.10
2023-04-10T06:18:42.521Z,16.30
2023-04-10T06:19:14.967Z,16.90
2023-04-10T06:19:47.438Z,15.10
2023-04-10T06:20:19.913Z,13.90
2023-04-10T06:20:52.394Z,14.80
2023-04-10T06:21:24.818Z,15.80
2023-04-10T06:21:57.274Z,15.20
2023-04-10T06:22:29.719Z,15.40
2023-04-10T06:23:02.232Z,14.60
2023-04-10T06:23:34.676Z,14.80
2023-04-10T06:24:07.137Z,15.20
2023-04-10T06:24:39.573Z,15.80
2023-04-10T06:25:12.009Z,15.90
2023-04-10T06:25:44.534Z,15.50
2023-04-10T06:26:16.965Z,15.40
2023-04-10T06:26:49.434Z,15.40
2023-04-10T06:27:21.888Z,15.00
2023-04-10T06:27:54.347Z,15.40
2023-04-10T06:28:26.842Z,15.30
2023-04-10T06:28:59.305Z,14.20
2023-04-10T06:29:31.756Z,14.00
2023-04-10T06:30:04.264Z,14.40
2023-04-10T06:30:36.737Z,15.00
2023-04-10T06:31:09.264Z,15.30
2023-04-10T06:31:41.696Z,15.20
2023-04-10T06:32:14.231Z,15.00
2023-04-10T06:32:46.726Z,14.20
2023-04-10T06:33:19.163Z,13.10
2023-04-10T06:33:51.643Z,14.10
2023-04-10T06:34:24.119Z,13.90
2023-04-10T06:34:56.609Z,12.70
2023-04-10T06:35:29.095Z,12.90
2023-04-10T06:36:01.624Z,13.30
2023-04-10T06:36:34.113Z,13.70
2023-04-10T06:37:06.593Z,14.10
2023-04-10T06:37:39.054Z,14.10
2023-04-10T06:38:11.550Z,12.40
2023-04-10T06:38:44.037Z,12.20
2023-04-10T06:39:16.521Z,12.80
2023-04-10T06:39:49.061Z,12.80
2023-04-10T06:40:21.554Z,12.10
2023-04-10T06:40:54.029Z,12.40
2023-04-10T06:41:26.570Z,12.70
2023-04-10T06:41:59.036Z,12.90
2023-04-10T06:42:31.526Z,12.10
2023-04-10T06:43:04.001Z,11.70
2023-04-10T06:43:36.477Z,13.30
2023-04-10T06:44:08.933Z,12.90
2023-04-10T06:44:41.386Z,11.70
2023-04-10T06:45:13.866Z,12.00
2023-04-10T06:45:46.342Z,11.80
2023-04-10T06:46:18.873Z,11.90
2023-04-10T06:46:51.298Z,12.70
2023-04-10T06:47:23.889Z,12.70
2023-04-10T06:47:56.216Z,12.80
2023-04-10T06:48:28.665Z,13.30
2023-04-10T06:49:01.129Z,13.10
2023-04-10T06:49:33.599Z,12.20
2023-04-10T06:50:06.071Z,11.10
2023-04-10T06:50:38.551Z,11.80
2023-04-10T06:51:11.048Z,11.70
2023-04-10T06:51:43.504Z,11.10
2023-04-10T06:52:15.998Z,11.30
2023-04-10T06:52:48.486Z,11.40
2023-04-10T06:53:20.936Z,11.00
2023-04-10T06:53:53.432Z,11.50
2023-04-10T06:54:25.871Z,11.30
2023-04-10T06:54:58.330Z,11.40
2023-04-10T06:55:30.824Z,11.60
2023-04-10T06:56:03.845Z,11.30
2023-04-10T06:56:35.744Z,10.70
2023-04-10T06:57:08.202Z,11.70
2023-04-10T06:57:40.671Z,11.80
2023-04-10T06:58:13.106Z,10.60
2023-04-10T06:58:45.596Z,10.40
2023-04-10T06:59:18.064Z,10.50
2023-04-10T06:59:50.509Z,10.30